Time;durP1;ratioP1;P1;durP2;ratioP2;P2;SDS_P1;SDS_P2;PMS_P1;PMS_P2;Temp;Humidity;BMP_temperature;BMP_pressure;BME280_temperature;BME280_humidity;BME280_pressure;Samples;Min_cycle;Max_cycle;Signal;HPM_P1;HPM_P2
2023/05/18 00:07:16;;;;;;;16.07;3.23;;;11.00;59.40;;;;;;20840509;28;20591;-73
2023/05/18 00:17:19;;;;;;;10.90;3.00;;;10.80;60.10;;;;;;20839186;28;20310;-74
2023/05/18 00:27:20;;;;;;;5.87;3.00;;;10.70;60.90;;;;;;20837645;28;20249;-75
2023/05/18 00:37:22;;;;;;;10.37;2.80;;;10.60;61.60;;;;;;20837941;28;20634;-77
2023/05/18 00:47:24;;;;;;;7.30;3.40;;;10.50;62.50;;;;;;20837088;28;20639;-77
2023/05/18 00:57:27;;;;;;;10.03;4.97;;;10.40;63.40;;;;;;20836813;28;20676;-78
2023/05/18 01:07:32;;;;;;;12.87;4.57;;;10.20;64.00;;;;;;20835302;28;20659;-78
2023/05/18 01:17:33;;;;;;;16.97;5.10;;;10.20;64.70;;;;;;20834677;28;20303;-77
2023/05/18 01:27:41;;;;;;;13.97;3.80;;;10.00;65.40;;;;;;20848596;28;20244;-75
2023/05/18 01:37:42;;;;;;;8.33;3.70;;;9.60;67.60;;;;;;20833221;28;20211;-75
2023/05/18 01:59:07;;;;;;;7.67;4.10;;;9.50;68.70;;;;;;20831683;28;20699;-77
2023/05/18 02:09:08;;;;;;;16.17;4.90;;;9.30;69.10;;;;;;20831582;28;20330;-77
2023/05/18 02:19:10;;;;;;;9.67;3.50;;;9.20;70.50;;;;;;20832653;28;20240;-74
2023/05/18 02:29:13;;;;;;;12.53;4.00;;;9.10;71.20;;;;;;20863186;28;20448;-76
2023/05/18 02:39:16;;;;;;;8.63;3.33;;;9.10;72.30;;;;;;20873164;28;20299;-75
2023/05/18 02:49:17;;;;;;;9.10;3.53;;;8.80;72.90;;;;;;20846205;28;20228;-76
2023/05/18 02:59:19;;;;;;;10.13;3.20;;;8.80;74.10;;;;;;20853145;28;20573;-73
2023/05/18 03:09:21;;;;;;;10.03;3.80;;;8.50;75.10;;;;;;20877029;28;20604;-73
2023/05/18 03:19:23;;;;;;;13.47;3.97;;;8.50;75.90;;;;;;20844104;28;20679;-72
2023/05/18 03:29:25;;;;;;;9.67;3.53;;;8.50;76.50;;;;;;20843146;28;20286;-75
2023/05/18 03:39:28;;;;;;;7.53;3.67;;;8.40;77.10;;;;;;20877363;28;20209;-76
2023/05/18 03:49:32;;;;;;;8.50;2.97;;;8.30;77.90;;;;;;20854787;28;20329;-77
2023/05/18 03:59:34;;;;;;;12.00;3.50;;;8.20;78.70;;;;;;20841184;28;20213;-78
2023/05/18 04:09:36;;;;;;;7.93;3.43;;;8.20;79.20;;;;;;20840767;28;21112;-73
2023/05/18 04:19:37;;;;;;;9.73;3.30;;;8.20;79.40;;;;;;20839545;28;20221;-74
2023/05/18 04:29:42;;;;;;;15.23;5.00;;;8.20;80.60;;;;;;20838321;28;20278;-73
2023/05/18 04:39:44;;;;;;;7.10;3.63;;;8.60;80.20;;;;;;20838152;28;20306;-74
2023/05/18 04:49:47;;;;;;;7.73;3.73;;;8.90;80.50;;;;;;20835813;28;20271;-73
2023/05/18 04:59:49;;;;;;;8.50;3.77;;;8.90;81.10;;;;;;20836507;28;20214;-72
2023/05/18 05:09:51;;;;;;;7.23;3.40;;;9.40;80.80;;;;;;20834674;28;20647;-73
2023/05/18 05:19:53;;;;;;;8.30;3.53;;;9.80;80.10;;;;;;20834556;28;20678;-72
2023/05/18 05:29:55;;;;;;;8.67;3.40;;;9.80;80.70;;;;;;20833700;28;20247;-74
2023/05/18 05:39:56;;;;;;;12.43;3.30;;;10.50;76.60;;;;;;20836233;28;20210;-72
2023/05/18 05:49:58;;;;;;;8.33;2.77;;;11.00;76.00;;;;;;20836290;28;20281;-75
2023/05/18 06:00:00;;;;;;;9.10;2.70;;;11.50;73.50;;;;;;20831681;28;20237;-71
2023/05/18 06:10:03;;;;;;;8.53;2.67;;;11.70;72.60;;;;;;20829806;28;20249;-71
2023/05/18 06:20:06;;;;;;;8.60;2.60;;;11.80;72.40;;;;;;20829760;28;20205;-74
2023/05/18 06:30:09;;;;;;;6.83;2.73;;;12.20;70.60;;;;;;20828827;28;20244;-72
2023/05/18 06:40:12;;;;;;;6.73;2.67;;;13.00;67.10;;;;;;20830145;28;20223;-72
2023/05/18 06:50:14;;;;;;;6.47;2.53;;;13.10;67.80;;;;;;20829340;28;20743;-73
2023/05/18 07:00:17;;;;;;;6.63;2.57;;;13.40;66.50;;;;;;20828381;28;20573;-74
2023/05/18 07:10:21;;;;;;;7.63;2.53;;;13.60;65.10;;;;;;20828625;28;20702;-72
2023/05/18 07:20:23;;;;;;;8.33;2.70;;;14.00;63.30;;;;;;20836718;28;20233;-73
2023/05/18 07:30:29;;;;;;;7.20;2.53;;;14.20;61.90;;;;;;20864284;28;20317;-75
2023/05/18 07:40:31;;;;;;;12.10;2.90;;;14.20;62.20;;;;;;20843731;28;20205;-76
2023/05/18 07:50:33;;;;;;;9.03;2.50;;;14.70;60.40;;;;;;20841672;28;20258;-78
2023/05/18 08:00:35;;;;;;;6.73;2.90;;;14.60;60.90;;;;;;20840935;28;20306;-77
2023/05/18 08:10:37;;;;;;;6.20;2.63;;;14.80;60.30;;;;;;20840499;28;20327;-78
2023/05/18 08:20:39;;;;;;;11.63;3.13;;;14.80;59.20;;;;;;20839603;28;20251;-79
2023/05/18 08:30:41;;;;;;;8.73;2.70;;;15.10;59.50;;;;;;20838377;28;20244;-78
2023/05/18 08:40:53;;;;;;;8.07;2.53;;;15.50;59.00;;;;;;20837975;28;20225;-78
2023/05/18 08:50:57;;;;;;;11.43;2.80;;;15.80;58.20;;;;;;20836205;28;20239;-77
2023/05/18 09:00:59;;;;;;;7.63;2.47;;;15.80;57.70;;;;;;20835541;28;20269;-77
2023/05/18 09:11:02;;;;;;;13.07;2.60;;;16.00;57.10;;;;;;20835124;28;20341;-76
2023/05/18 09:21:05;;;;;;;6.30;2.37;;;16.20;55.40;;;;;;20834163;28;20225;-77
2023/05/18 09:31:15;;;;;;;9.67;2.20;;;16.50;54.80;;;;;;20833275;28;20697;-77
2023/05/18 09:41:17;;;;;;;7.57;2.80;;;17.30;49.10;;;;;;20832880;28;20215;-77
2023/05/18 09:51:23;;;;;;;8.33;3.37;;;17.70;49.00;;;;;;20831230;28;20712;-78
2023/05/18 10:01:25;;;;;;;8.53;2.30;;;17.70;48.80;;;;;;20831689;28;20208;-73
2023/05/18 10:11:31;;;;;;;8.30;2.50;;;17.60;48.70;;;;;;20830933;28;20334;-75
2023/05/18 10:21:34;;;;;;;5.03;1.90;;;17.70;48.70;;;;;;20830851;28;20267;-78
2023/05/18 10:31:37;;;;;;;7.87;2.17;;;18.10;47.10;;;;;;20828874;28;20234;-78
2023/05/18 10:41:41;;;;;;;7.20;2.60;;;18.10;47.50;;;;;;20828879;28;20298;-78
2023/05/18 10:51:45;;;;;;;5.03;2.17;;;18.30;47.10;;;;;;20828539;28;20262;-77
2023/05/18 11:01:50;;;;;;;11.03;2.70;;;18.50;46.60;;;;;;20840452;28;20211;-72
2023/05/18 11:12:01;;;;;;;7.30;2.37;;;18.60;46.60;;;;;;20868114;28;20242;-76
2023/05/18 11:22:10;;;;;;;9.63;2.23;;;18.60;45.90;;;;;;20847522;28;20568;-74
2023/05/18 11:32:31;;;;;;;7.67;2.60;;;18.80;45.50;;;;;;20841683;28;20328;-78
2023/05/18 11:42:34;;;;;;;8.83;2.33;;;19.20;44.40;;;;;;20841968;28;20235;-78
2023/05/18 11:52:47;;;;;;;6.20;2.40;;;19.30;44.90;;;;;;20841535;28;20244;-78
2023/05/18 12:02:51;;;;;;;6.13;2.37;;;19.80;44.90;;;;;;20840411;28;20608;-79
2023/05/18 12:12:55;;;;;;;6.73;2.00;;;19.50;44.50;;;;;;20838611;28;20228;-79
2023/05/18 12:22:57;;;;;;;7.70;2.60;;;19.90;44.20;;;;;;20838954;28;20239;-73
2023/05/18 12:33:01;;;;;;;8.23;2.30;;;20.40;43.10;;;;;;20837596;28;20264;-78
2023/05/18 12:43:03;;;;;;;7.47;2.40;;;20.40;42.60;;;;;;20837267;28;20208;-76
2023/05/18 12:53:04;;;;;;;8.60;2.90;;;19.70;42.10;;;;;;20837201;28;20237;-73
2023/05/18 13:03:19;;;;;;;8.83;3.40;;;19.90;41.60;;;;;;20836256;28;20212;-77
2023/05/18 13:13:21;;;;;;;7.87;3.20;;;20.00;42.20;;;;;;20835189;28;20236;-76
2023/05/18 13:23:27;;;;;;;6.90;2.33;;;20.50;41.90;;;;;;20833972;28;20291;-74
2023/05/18 13:33:29;;;;;;;8.30;2.80;;;20.50;42.00;;;;;;20833862;28;20319;-76
2023/05/18 13:43:31;;;;;;;6.03;2.67;;;20.40;41.40;;;;;;20831696;28;20300;-73
2023/05/18 13:53:33;;;;;;;8.23;3.20;;;20.80;41.10;;;;;;20832857;28;20244;-78
2023/05/18 14:03:35;;;;;;;7.57;2.30;;;21.10;40.80;;;;;;20833481;28;20244;-74
2023/05/18 14:13:37;;;;;;;4.63;2.50;;;21.20;40.50;;;;;;20834337;28;20668;-74
2023/05/18 14:23:39;;;;;;;6.55;2.60;;;21.90;40.00;;;;;;20840996;28;20795;-78
2023/05/18 14:33:41;;;;;;;7.47;2.47;;;27.00;35.50;;;;;;20836753;28;20637;-79
2023/05/18 14:43:45;;;;;;;7.25;2.40;;;25.80;35.30;;;;;;20834362;28;20712;-79
2023/05/18 14:53:47;;;;;;;5.25;2.35;;;25.20;34.40;;;;;;20900886;28;20239;-79
2023/05/18 15:03:48;;;;;;;6.82;2.20;;;25.50;34.70;;;;;;20861300;28;20577;-71
2023/05/18 15:13:50;;;;;;;5.95;2.20;;;28.50;32.30;;;;;;20828676;28;20307;-76
2023/05/18 15:23:52;;;;;;;9.00;2.45;;;29.90;30.50;;;;;;20828445;28;20320;-76
2023/05/18 15:33:54;;;;;;;5.97;2.50;;;27.10;31.20;;;;;;20827963;28;20637;-75
2023/05/18 15:43:55;;;;;;;8.07;2.10;;;26.20;32.20;;;;;;20827550;28;20241;-78
2023/05/18 15:53:57;;;;;;;6.97;2.00;;;26.00;32.50;;;;;;20839788;28;20208;-75
2023/05/18 16:03:59;;;;;;;7.47;2.08;;;25.30;33.20;;;;;;20841159;28;20204;-71
2023/05/18 16:14:03;;;;;;;6.78;2.13;;;26.30;32.60;;;;;;20840378;28;20213;-76
2023/05/18 16:24:06;;;;;;;6.32;2.33;;;27.60;31.50;;;;;;20839891;28;20264;-73
2023/05/18 16:34:07;;;;;;;4.03;1.90;;;28.00;30.40;;;;;;20838944;28;20216;-78
2023/05/18 16:44:09;;;;;;;7.70;2.00;;;29.90;29.90;;;;;;20838015;28;20205;-75
2023/05/18 16:54:11;;;;;;;5.43;2.05;;;29.60;28.90;;;;;;20837645;28;20608;-75
2023/05/18 17:04:13;;;;;;;5.80;2.15;;;29.00;29.90;;;;;;20836207;28;22188;-74
2023/05/18 17:14:17;;;;;;;5.60;2.10;;;29.80;29.10;;;;;;20835517;28;20258;-71
2023/05/18 17:24:18;;;;;;;4.72;2.00;;;29.20;29.00;;;;;;20896412;28;20595;-75
2023/05/18 17:34:21;;;;;;;7.82;1.88;;;30.70;28.90;;;;;;20967704;28;20647;-77
2023/05/18 17:44:22;;;;;;;5.13;2.15;;;31.50;27.90;;;;;;20933706;28;20577;-75
2023/05/18 17:54:25;;;;;;;5.00;2.47;;;25.50;31.80;;;;;;20914635;28;20739;-74
2023/05/18 18:04:26;;;;;;;5.93;2.00;;;22.80;34.50;;;;;;20912118;28;20267;-74
2023/05/18 18:14:28;;;;;;;4.73;1.90;;;21.10;36.60;;;;;;20912401;28;20199;-74
2023/05/18 18:24:30;;;;;;;6.47;2.10;;;20.10;38.20;;;;;;20913298;28;20239;-75
2023/05/18 18:34:32;;;;;;;4.37;1.97;;;18.90;39.70;;;;;;20918055;28;20302;-75
2023/05/18 18:44:34;;;;;;;4.67;2.13;;;18.70;40.60;;;;;;20924643;28;20663;-77
2023/05/18 18:54:36;;;;;;;4.63;2.03;;;18.20;41.60;;;;;;20915839;28;20679;-74
2023/05/18 19:04:38;;;;;;;5.37;2.07;;;17.60;42.70;;;;;;20913098;28;20722;-75
2023/05/18 19:14:39;;;;;;;7.00;1.90;;;17.30;43.60;;;;;;20911838;28;20216;-76
2023/05/18 19:24:41;;;;;;;3.87;2.17;;;16.90;44.60;;;;;;20917113;28;20239;-73
2023/05/18 19:34:43;;;;;;;5.53;2.03;;;16.60;45.40;;;;;;20925775;28;20206;-74
2023/05/18 19:44:45;;;;;;;7.07;2.33;;;16.40;46.20;;;;;;20924770;28;20230;-75
2023/05/18 19:54:46;;;;;;;8.63;2.50;;;16.20;46.90;;;;;;20918559;28;20446;-75
2023/05/18 20:04:49;;;;;;;7.47;2.07;;;16.70;48.00;;;;;;20923790;28;20311;-74
2023/05/18 20:14:51;;;;;;;6.43;2.70;;;16.10;48.20;;;;;;20922853;28;20214;-74
2023/05/18 20:24:53;;;;;;;6.13;2.10;;;15.90;48.40;;;;;;20921779;28;20323;-72
2023/05/18 20:34:55;;;;;;;5.13;2.17;;;15.70;48.40;;;;;;20918651;28;20350;-74
2023/05/18 20:44:57;;;;;;;7.40;2.30;;;15.60;48.90;;;;;;20920020;28;20228;-74
2023/05/18 20:54:59;;;;;;;4.43;2.20;;;15.50;49.10;;;;;;20919525;28;20208;-73
2023/05/18 21:05:03;;;;;;;5.53;2.50;;;15.40;49.40;;;;;;20919116;28;20913;-73
2023/05/18 21:15:05;;;;;;;5.67;2.40;;;15.20;49.90;;;;;;20918175;28;20251;-73
2023/05/18 21:25:07;;;;;;;5.00;2.30;;;15.00;50.20;;;;;;20916881;28;20255;-74
2023/05/18 21:35:09;;;;;;;6.30;2.10;;;14.90;50.80;;;;;;20916777;28;20318;-74
2023/05/18 21:45:11;;;;;;;6.23;2.20;;;14.80;51.00;;;;;;20914787;28;20243;-74
2023/05/18 21:55:13;;;;;;;4.23;1.87;;;14.70;51.40;;;;;;20915021;28;20284;-74
2023/05/18 22:05:15;;;;;;;6.53;2.63;;;14.60;51.70;;;;;;20915047;28;20228;-74
2023/05/18 22:15:20;;;;;;;3.83;1.97;;;14.50;51.60;;;;;;20923054;28;20287;-74
2023/05/18 22:25:23;;;;;;;4.73;1.93;;;14.30;52.00;;;;;;20933053;28;20287;-74
2023/05/18 22:35:25;;;;;;;10.00;2.40;;;14.30;52.60;;;;;;20914484;28;20216;-74
2023/05/18 22:45:27;;;;;;;5.53;2.30;;;14.20;52.80;;;;;;20912050;28;20239;-73
2023/05/18 22:55:29;;;;;;;7.40;2.20;;;14.00;52.80;;;;;;20913190;28;20226;-73
2023/05/18 23:05:31;;;;;;;9.57;2.40;;;14.00;53.50;;;;;;20928343;28;20238;-73
2023/05/18 23:15:33;;;;;;;5.23;2.00;;;13.80;53.40;;;;;;20927562;28;20239;-73
2023/05/18 23:25:35;;;;;;;7.30;2.13;;;13.80;53.90;;;;;;20927466;28;20282;-73
2023/05/18 23:35:37;;;;;;;6.17;2.47;;;13.70;54.20;;;;;;20926777;28;20716;-74
2023/05/18 23:45:39;;;;;;;11.03;2.30;;;13.60;54.80;;;;;;20925137;28;20659;-73
2023/05/18 23:55:41;;;;;;;16.37;2.60;;;13.40;54.90;;;;;;20924254;28;20211;-74
